»·PEaware :: UAL576 KBOI-KRDD

UAL576 :: KBOI-KRDD

FLIGHT INFORMATION

Flight Status: Arrived
Operator:
United Airlines
More flights by this operator :: More flights under this callsign
Pilot: Anonymous 8274 (8274)
Aircraft: BOEING 737-200
(B732)
More flights by this aircraft type
Origin: KBOI Boise Air Terminal/Gowen
United States
Destination: KRDD Redding Mun
United States
More flights between these airports :: More routes between these airports
Route: +BOI3 V330 ILR V357 LKV V122 LMT V25 GARSA
File this flight plan on PilotEdge
Remarks:
Altitude:
(Current/Filed)
16,000ft
Speed:
(Current/Filed)
390kts
Departed: 08-Nov-18 05:52 PM
Arrived: 08-Nov-18 07:13 PM
Distance/Time
Traveled:
327nm/1:20
Distance/Time
To Go:
Arrived

Flight Plot

Page will automatically refresh every two minutes.

Flight plan parsing failed; only flown route is shown


Map Options




Map Legend


Flown Route
Filed Route
Departure Airport
Arrival Airport
Navaid (VOR, NDB)
Fix

Horizontal Profiles

Position Reports

Time Latitude Longitude Heading Altitude Ground
Speed
08-Nov-18 16:59 43.567018 -116.219736 30 2847ft 0kts
08-Nov-18 17:00 43.567018 -116.219736 30 2847ft 0kts
08-Nov-18 17:01 43.567018 -116.219736 30 2847ft 0kts
08-Nov-18 17:02 43.567018 -116.219736 30 2847ft 0kts
08-Nov-18 17:03 43.567018 -116.219736 30 2847ft 0kts
08-Nov-18 17:04 43.567018 -116.219736 30 2847ft 0kts
08-Nov-18 17:05 43.567018 -116.219736 30 2847ft 0kts
08-Nov-18 17:06 43.567018 -116.219736 30 2847ft 0kts
08-Nov-18 17:07 43.567018 -116.219736 30 2847ft 0kts
08-Nov-18 17:08 43.567018 -116.219736 30 2847ft 0kts
08-Nov-18 17:09 43.567018 -116.219736 30 2847ft 0kts
08-Nov-18 17:10 43.567018 -116.219736 30 2847ft 0kts
08-Nov-18 17:11 43.567018 -116.219736 30 2847ft 0kts
08-Nov-18 17:12 43.567018 -116.219736 30 2847ft 0kts
08-Nov-18 17:13 43.567018 -116.219736 30 2847ft 0kts
08-Nov-18 17:14 43.567018 -116.219736 30 2847ft 0kts
08-Nov-18 17:15 43.567018 -116.219736 30 2847ft 0kts
08-Nov-18 17:16 43.567018 -116.219736 30 2847ft 0kts
08-Nov-18 17:17 43.567018 -116.219736 30 2847ft 0kts
08-Nov-18 17:18 43.567018 -116.219736 30 2847ft 0kts
08-Nov-18 17:19 43.567018 -116.219736 30 2847ft 0kts
08-Nov-18 17:20 43.567018 -116.219736 30 2847ft 0kts
08-Nov-18 17:21 43.567018 -116.219736 30 2847ft 0kts
08-Nov-18 17:22 43.567018 -116.219736 30 2847ft 0kts
08-Nov-18 17:23 43.567018 -116.219736 30 2847ft 0kts
08-Nov-18 17:24 43.567018 -116.219736 30 2847ft 0kts
08-Nov-18 17:25 43.567018 -116.219736 30 2847ft 0kts
08-Nov-18 17:26 43.567018 -116.219736 30 2847ft 0kts
08-Nov-18 17:27 43.567018 -116.219736 30 2847ft 0kts
08-Nov-18 17:28 43.567018 -116.219736 30 2847ft 0kts
08-Nov-18 17:29 43.567018 -116.219736 30 2847ft 0kts
08-Nov-18 17:30 43.567018 -116.219736 30 2847ft 0kts
08-Nov-18 17:31 43.567018 -116.219736 30 2847ft 0kts
08-Nov-18 17:32 43.567018 -116.219736 30 2847ft 0kts
08-Nov-18 17:33 43.567018 -116.219736 30 2847ft 0kts
08-Nov-18 17:34 43.567018 -116.219736 30 2847ft 0kts
08-Nov-18 17:35 43.567018 -116.219736 30 2847ft 0kts
08-Nov-18 17:36 43.567018 -116.219736 30 2847ft 0kts
08-Nov-18 17:37 43.567018 -116.219736 30 2847ft 0kts
08-Nov-18 17:38 43.567018 -116.219736 30 2847ft 0kts
08-Nov-18 17:39 43.567018 -116.219736 30 2847ft 0kts
08-Nov-18 17:40 43.567018 -116.219736 30 2847ft 0kts
08-Nov-18 17:41 43.567018 -116.219736 30 2847ft 0kts
08-Nov-18 17:42 43.567018 -116.219736 30 2847ft 0kts
08-Nov-18 17:43 43.567021 -116.219733 30 2847ft 0kts
08-Nov-18 17:44 43.566566 -116.220111 43 2847ft 2kts
08-Nov-18 17:45 43.566543 -116.220404 116 2847ft 0kts
08-Nov-18 17:46 43.566543 -116.220404 116 2847ft 0kts
08-Nov-18 17:47 43.566543 -116.220404 116 2847ft 0kts
08-Nov-18 17:48 43.566496 -116.220271 115 2847ft 0kts
08-Nov-18 17:49 43.564684 -116.216709 146 2847ft 16kts
08-Nov-18 17:50 43.562080 -116.209398 115 2847ft 27kts
08-Nov-18 17:51 43.559351 -116.202034 186 2847ft 0kts
08-Nov-18 17:52 43.559351 -116.202034 186 2847ft 0kts
08-Nov-18 17:53 43.559351 -116.202034 186 2847ft 0kts
08-Nov-18 17:54 43.558872 -116.203540 296 2847ft 9kts
08-Nov-18 17:55 43.571425 -116.240217 292 3622ft 151kts
08-Nov-18 17:56 43.587639 -116.300220 297 5006ft 204kts
08-Nov-18 17:57 43.578636 -116.386207 253 7027ft 262kts
08-Nov-18 17:58 43.558284 -116.481580 268 10333ft 251kts
08-Nov-18 17:59 43.560505 -116.585290 274 11958ft 292kts
08-Nov-18 18:00 43.567754 -116.695007 270 14429ft 291kts
08-Nov-18 18:01 43.569425 -116.808007 267 16019ft 311kts
08-Nov-18 18:02 43.566837 -116.937006 267 16003ft 350kts
08-Nov-18 18:03 43.567645 -117.071539 269 16004ft 350kts
08-Nov-18 18:04 43.568959 -117.205830 269 16002ft 350kts
08-Nov-18 18:05 43.570369 -117.339992 269 16001ft 350kts
08-Nov-18 18:06 43.571831 -117.473974 269 15999ft 350kts
08-Nov-18 18:07 43.573266 -117.608203 269 15998ft 350kts
08-Nov-18 18:08 43.574658 -117.738883 269 16007ft 350kts
08-Nov-18 18:09 43.574768 -117.873226 270 16000ft 353kts
08-Nov-18 18:10 43.574840 -118.008571 276 16003ft 355kts
08-Nov-18 18:11 43.581679 -118.144525 274 15992ft 357kts
08-Nov-18 18:12 43.589663 -118.281830 276 15975ft 359kts
08-Nov-18 18:13 43.596353 -118.419618 273 15972ft 361kts
08-Nov-18 18:14 43.594408 -118.558410 272 15972ft 362kts
08-Nov-18 18:15 43.592249 -118.693844 271 15979ft 363kts
08-Nov-18 18:16 43.590082 -118.833271 271 15960ft 364kts
08-Nov-18 18:17 43.557534 -118.961384 224 15962ft 392kts
08-Nov-18 18:18 43.478186 -119.061296 234 15958ft 385kts
08-Nov-18 18:19 43.411205 -119.175042 237 15958ft 383kts
08-Nov-18 18:20 43.348568 -119.291587 240 16321ft 367kts
08-Nov-18 18:21 43.286030 -119.406140 231 15958ft 386kts
08-Nov-18 18:22 43.210268 -119.510031 231 15956ft 386kts
08-Nov-18 18:23 43.134233 -119.614110 231 15955ft 386kts
08-Nov-18 18:24 43.059449 -119.716313 231 15964ft 386kts
08-Nov-18 18:25 42.983418 -119.820119 231 15963ft 387kts
08-Nov-18 18:26 42.907372 -119.924005 231 15962ft 387kts
08-Nov-18 18:27 42.832688 -120.025932 231 15940ft 387kts
08-Nov-18 18:28 42.758912 -120.131622 235 15930ft 383kts
08-Nov-18 18:29 42.689711 -120.240922 235 15929ft 382kts
08-Nov-18 18:30 42.617553 -120.344938 230 15932ft 385kts
08-Nov-18 18:31 42.540685 -120.445574 230 15928ft 384kts
08-Nov-18 18:32 42.469574 -120.551052 246 15937ft 371kts
08-Nov-18 18:33 42.432194 -120.677666 262 15933ft 362kts
08-Nov-18 18:34 42.407153 -120.809175 249 15939ft 370kts
08-Nov-18 18:35 42.367279 -120.936588 256 15931ft 367kts
08-Nov-18 18:36 42.337702 -121.068071 255 15930ft 367kts
08-Nov-18 18:37 42.301171 -121.197106 253 15931ft 368kts
08-Nov-18 18:38 42.264429 -121.326100 253 15903ft 368kts
08-Nov-18 18:39 42.227932 -121.454738 253 15901ft 367kts
08-Nov-18 18:40 42.193306 -121.583384 256 15919ft 366kts
08-Nov-18 18:41 42.165379 -121.688057 251 15912ft 377kts
08-Nov-18 18:42 42.141434 -121.821445 243 16100ft 384kts
08-Nov-18 18:43 42.040778 -121.872220 173 16256ft 444kts
08-Nov-18 18:44 41.929090 -121.800451 142 16370ft 467kts
08-Nov-18 18:45 41.825778 -121.721405 179 16495ft 443kts
08-Nov-18 18:46 41.710290 -121.707590 185 15904ft 404kts
08-Nov-18 18:47 41.600991 -121.707378 189 15905ft 388kts
08-Nov-18 18:48 41.496234 -121.719455 195 15906ft 375kts
08-Nov-18 18:49 41.394034 -121.739659 195 15906ft 370kts
08-Nov-18 18:50 41.293089 -121.759670 195 15853ft 368kts
08-Nov-18 18:51 41.192912 -121.780047 198 15852ft 364kts
08-Nov-18 18:52 41.096599 -121.807519 199 16119ft 355kts
08-Nov-18 18:53 41.000233 -121.835046 199 16121ft 356kts
08-Nov-18 18:54 40.905840 -121.868090 205 16121ft 352kts
08-Nov-18 18:55 40.821220 -121.904819 205 16115ft 353kts
08-Nov-18 18:56 40.732025 -121.950893 224 16017ft 340kts
08-Nov-18 18:57 40.660154 -122.028453 233 13843ft 332kts
08-Nov-18 18:58 40.606413 -122.124010 244 11729ft 321kts
08-Nov-18 18:59 40.558277 -122.217260 232 9980ft 289kts
08-Nov-18 19:00 40.500753 -122.289044 226 7251ft 285kts
08-Nov-18 19:01 40.427572 -122.301803 170 4982ft 271kts
08-Nov-18 19:02 40.360607 -122.290762 180 4596ft 231kts
08-Nov-18 19:03 40.296047 -122.295840 182 3195ft 243kts
08-Nov-18 19:04 40.234437 -122.304185 215 2988ft 208kts
08-Nov-18 19:05 40.188665 -122.350082 220 2988ft 209kts
08-Nov-18 19:06 40.147495 -122.329427 79 2988ft 193kts
08-Nov-18 19:07 40.186812 -122.295244 3 3004ft 172kts
08-Nov-18 19:08 40.223805 -122.294799 356 2971ft 153kts
08-Nov-18 19:09 40.266038 -122.296584 2 2687ft 155kts
08-Nov-18 19:10 40.309209 -122.294893 1 2696ft 153kts
08-Nov-18 19:11 40.353251 -122.295125 358 2709ft 157kts
08-Nov-18 19:12 40.394810 -122.294768 0 2611ft 135kts
08-Nov-18 19:13 40.437984 -122.295145 0 1783ft 132kts
08-Nov-18 19:14 40.468640 -122.294952 0 1177ft 133kts
08-Nov-18 19:15 40.504911 -122.294880 0 506ft 124kts
08-Nov-18 19:16 40.520066 -122.294973 326 501ft 0kts
08-Nov-18 19:17 40.518443 -122.296291 181 501ft 11kts
08-Nov-18 19:18 40.514141 -122.296296 180 501ft 21kts
08-Nov-18 19:19 40.507470 -122.298398 212 501ft 21kts
08-Nov-18 19:20 40.505289 -122.298896 315 501ft 0kts

Navigation Log

Ident Type
Flight plan parsing failed, navigation log unavailable